sensor_id;sensor_type;location;lat;lon;timestamp;P1;durP1;ratioP1;P2;durP2;ratioP2
53694;SDS011;39588;51.124;7.190;2022-07-09T00:00:08;0.27;;;0.27;;
53694;SDS011;39588;51.124;7.190;2022-07-09T00:02:35;0.50;;;0.50;;
53694;SDS011;39588;51.124;7.190;2022-07-09T00:05:01;0.83;;;0.60;;
53694;SDS011;39588;51.124;7.190;2022-07-09T00:07:28;1.47;;;0.77;;
53694;SDS011;39588;51.124;7.190;2022-07-09T00:09:53;0.40;;;0.37;;
53694;SDS011;39588;51.124;7.190;2022-07-09T00:12:19;0.40;;;0.40;;
53694;SDS011;39588;51.124;7.190;2022-07-09T00:14:44;0.43;;;0.43;;
53694;SDS011;39588;51.124;7.190;2022-07-09T00:17:10;0.50;;;0.50;;
53694;SDS011;39588;51.124;7.190;2022-07-09T00:19:36;0.50;;;0.50;;
53694;SDS011;39588;51.124;7.190;2022-07-09T00:22:02;0.23;;;0.23;;
53694;SDS011;39588;51.124;7.190;2022-07-09T00:24:27;0.50;;;0.50;;
53694;SDS011;39588;51.124;7.190;2022-07-09T00:26:53;0.33;;;0.33;;
53694;SDS011;39588;51.124;7.190;2022-07-09T00:29:19;0.30;;;0.30;;
53694;SDS011;39588;51.124;7.190;2022-07-09T00:31:44;0.27;;;0.27;;
53694;SDS011;39588;51.124;7.190;2022-07-09T00:34:11;0.30;;;0.30;;
53694;SDS011;39588;51.124;7.190;2022-07-09T00:36:37;0.40;;;0.40;;
53694;SDS011;39588;51.124;7.190;2022-07-09T00:39:03;0.40;;;0.40;;
53694;SDS011;39588;51.124;7.190;2022-07-09T00:41:29;0.40;;;0.40;;
53694;SDS011;39588;51.124;7.190;2022-07-09T00:43:55;0.97;;;0.30;;
53694;SDS011;39588;51.124;7.190;2022-07-09T00:46:21;0.27;;;0.27;;
53694;SDS011;39588;51.124;7.190;2022-07-09T00:48:47;0.10;;;0.10;;
53694;SDS011;39588;51.124;7.190;2022-07-09T00:51:13;1.07;;;0.47;;
53694;SDS011;39588;51.124;7.190;2022-07-09T00:53:39;0.60;;;0.60;;
53694;SDS011;39588;51.124;7.190;2022-07-09T00:56:06;0.70;;;0.70;;
53694;SDS011;39588;51.124;7.190;2022-07-09T00:58:33;1.00;;;0.87;;
53694;SDS011;39588;51.124;7.190;2022-07-09T01:01:00;0.60;;;0.60;;
53694;SDS011;39588;51.124;7.190;2022-07-09T01:03:27;0.17;;;0.17;;
53694;SDS011;39588;51.124;7.190;2022-07-09T01:05:53;0.40;;;0.40;;
53694;SDS011;39588;51.124;7.190;2022-07-09T01:08:20;0.40;;;0.40;;
53694;SDS011;39588;51.124;7.190;2022-07-09T01:10:46;0.40;;;0.40;;
53694;SDS011;39588;51.124;7.190;2022-07-09T01:13:15;0.50;;;0.50;;
53694;SDS011;39588;51.124;7.190;2022-07-09T01:15:41;0.33;;;0.33;;
53694;SDS011;39588;51.124;7.190;2022-07-09T01:18:10;0.80;;;0.70;;
53694;SDS011;39588;51.124;7.190;2022-07-09T01:20:36;0.60;;;0.60;;
53694;SDS011;39588;51.124;7.190;2022-07-09T01:23:02;0.30;;;0.30;;
53694;SDS011;39588;51.124;7.190;2022-07-09T01:25:34;0.50;;;0.50;;
53694;SDS011;39588;51.124;7.190;2022-07-09T01:28:00;0.80;;;0.80;;
53694;SDS011;39588;51.124;7.190;2022-07-09T01:30:27;0.40;;;0.40;;
53694;SDS011;39588;51.124;7.190;2022-07-09T01:32:53;0.70;;;0.70;;
53694;SDS011;39588;51.124;7.190;2022-07-09T01:35:19;0.40;;;0.40;;
53694;SDS011;39588;51.124;7.190;2022-07-09T01:37:46;0.63;;;0.63;;
53694;SDS011;39588;51.124;7.190;2022-07-09T01:40:12;0.30;;;0.30;;
53694;SDS011;39588;51.124;7.190;2022-07-09T01:42:38;0.30;;;0.30;;
53694;SDS011;39588;51.124;7.190;2022-07-09T01:45:04;0.60;;;0.60;;
53694;SDS011;39588;51.124;7.190;2022-07-09T01:47:30;0.47;;;0.47;;
53694;SDS011;39588;51.124;7.190;2022-07-09T01:49:55;0.60;;;0.60;;
53694;SDS011;39588;51.124;7.190;2022-07-09T01:52:21;0.67;;;0.60;;
53694;SDS011;39588;51.124;7.190;2022-07-09T01:54:46;0.70;;;0.70;;
53694;SDS011;39588;51.124;7.190;2022-07-09T01:57:12;0.50;;;0.50;;
53694;SDS011;39588;51.124;7.190;2022-07-09T01:59:38;0.60;;;0.60;;
53694;SDS011;39588;51.124;7.190;2022-07-09T02:02:03;0.40;;;0.40;;
53694;SDS011;39588;51.124;7.190;2022-07-09T02:04:30;0.40;;;0.40;;
53694;SDS011;39588;51.124;7.190;2022-07-09T02:06:56;3.30;;;0.97;;
53694;SDS011;39588;51.124;7.190;2022-07-09T02:09:21;0.50;;;0.50;;
53694;SDS011;39588;51.124;7.190;2022-07-09T02:11:47;1.50;;;1.40;;
53694;SDS011;39588;51.124;7.190;2022-07-09T02:14:14;0.87;;;0.87;;
53694;SDS011;39588;51.124;7.190;2022-07-09T02:16:39;0.60;;;0.60;;
53694;SDS011;39588;51.124;7.190;2022-07-09T02:19:05;0.50;;;0.50;;
53694;SDS011;39588;51.124;7.190;2022-07-09T02:21:31;0.40;;;0.40;;
53694;SDS011;39588;51.124;7.190;2022-07-09T02:23:57;0.93;;;0.93;;
53694;SDS011;39588;51.124;7.190;2022-07-09T02:26:27;0.97;;;0.97;;
53694;SDS011;39588;51.124;7.190;2022-07-09T02:31:26;0.50;;;0.50;;
53694;SDS011;39588;51.124;7.190;2022-07-09T02:33:53;2.03;;;1.93;;
53694;SDS011;39588;51.124;7.190;2022-07-09T02:36:19;0.40;;;0.40;;
53694;SDS011;39588;51.124;7.190;2022-07-09T02:38:45;0.93;;;0.93;;
53694;SDS011;39588;51.124;7.190;2022-07-09T02:41:10;2.73;;;1.00;;
53694;SDS011;39588;51.124;7.190;2022-07-09T02:43:36;0.47;;;0.47;;
53694;SDS011;39588;51.124;7.190;2022-07-09T02:46:03;1.13;;;1.13;;
53694;SDS011;39588;51.124;7.190;2022-07-09T02:48:29;1.00;;;1.00;;
53694;SDS011;39588;51.124;7.190;2022-07-09T02:50:55;2.03;;;1.20;;
53694;SDS011;39588;51.124;7.190;2022-07-09T02:53:21;8.40;;;0.70;;
53694;SDS011;39588;51.124;7.190;2022-07-09T02:55:46;1.93;;;1.83;;
53694;SDS011;39588;51.124;7.190;2022-07-09T02:58:12;1.30;;;1.20;;
53694;SDS011;39588;51.124;7.190;2022-07-09T03:00:38;0.70;;;0.67;;
53694;SDS011;39588;51.124;7.190;2022-07-09T03:03:05;0.87;;;0.87;;
53694;SDS011;39588;51.124;7.190;2022-07-09T03:05:31;0.70;;;0.70;;
53694;SDS011;39588;51.124;7.190;2022-07-09T03:07:57;1.37;;;1.20;;
53694;SDS011;39588;51.124;7.190;2022-07-09T03:10:23;1.17;;;1.07;;
53694;SDS011;39588;51.124;7.190;2022-07-09T03:12:48;0.80;;;0.80;;
53694;SDS011;39588;51.124;7.190;2022-07-09T03:15:14;0.63;;;0.63;;
53694;SDS011;39588;51.124;7.190;2022-07-09T03:17:42;1.10;;;1.07;;
53694;SDS011;39588;51.124;7.190;2022-07-09T03:20:08;1.57;;;1.47;;
53694;SDS011;39588;51.124;7.190;2022-07-09T03:22:34;0.73;;;0.73;;
53694;SDS011;39588;51.124;7.190;2022-07-09T03:25:00;1.07;;;0.90;;
53694;SDS011;39588;51.124;7.190;2022-07-09T03:27:26;1.27;;;1.13;;
53694;SDS011;39588;51.124;7.190;2022-07-09T03:29:51;0.30;;;0.30;;
53694;SDS011;39588;51.124;7.190;2022-07-09T03:32:17;1.40;;;1.30;;
53694;SDS011;39588;51.124;7.190;2022-07-09T03:34:43;0.97;;;0.97;;
53694;SDS011;39588;51.124;7.190;2022-07-09T03:37:08;0.90;;;0.90;;
53694;SDS011;39588;51.124;7.190;2022-07-09T03:39:34;0.93;;;0.93;;
53694;SDS011;39588;51.124;7.190;2022-07-09T03:42:00;0.77;;;0.77;;
53694;SDS011;39588;51.124;7.190;2022-07-09T03:44:26;0.63;;;0.63;;
53694;SDS011;39588;51.124;7.190;2022-07-09T03:46:51;0.77;;;0.77;;
53694;SDS011;39588;51.124;7.190;2022-07-09T03:49:17;0.53;;;0.53;;
53694;SDS011;39588;51.124;7.190;2022-07-09T03:51:43;1.33;;;1.33;;
53694;SDS011;39588;51.124;7.190;2022-07-09T03:54:09;0.83;;;0.83;;
53694;SDS011;39588;51.124;7.190;2022-07-09T03:56:35;1.73;;;1.70;;
53694;SDS011;39588;51.124;7.190;2022-07-09T03:59:01;0.87;;;0.87;;
53694;SDS011;39588;51.124;7.190;2022-07-09T04:01:26;1.73;;;1.43;;
53694;SDS011;39588;51.124;7.190;2022-07-09T04:03:52;2.23;;;1.20;;
53694;SDS011;39588;51.124;7.190;2022-07-09T04:06:18;0.70;;;0.70;;
53694;SDS011;39588;51.124;7.190;2022-07-09T04:08:45;1.13;;;1.13;;
53694;SDS011;39588;51.124;7.190;2022-07-09T04:11:10;2.17;;;1.97;;
53694;SDS011;39588;51.124;7.190;2022-07-09T04:13:36;3.57;;;1.17;;
53694;SDS011;39588;51.124;7.190;2022-07-09T04:16:02;0.93;;;0.93;;
53694;SDS011;39588;51.124;7.190;2022-07-09T04:18:28;0.80;;;0.80;;
53694;SDS011;39588;51.124;7.190;2022-07-09T04:20:53;1.13;;;1.07;;
53694;SDS011;39588;51.124;7.190;2022-07-09T04:23:19;1.03;;;1.03;;
53694;SDS011;39588;51.124;7.190;2022-07-09T04:25:45;1.10;;;1.10;;
53694;SDS011;39588;51.124;7.190;2022-07-09T04:28:13;0.63;;;0.63;;
53694;SDS011;39588;51.124;7.190;2022-07-09T04:30:38;0.50;;;0.50;;
53694;SDS011;39588;51.124;7.190;2022-07-09T04:33:04;1.00;;;1.00;;
53694;SDS011;39588;51.124;7.190;2022-07-09T04:35:30;0.70;;;0.70;;
53694;SDS011;39588;51.124;7.190;2022-07-09T04:37:55;1.33;;;1.23;;
53694;SDS011;39588;51.124;7.190;2022-07-09T04:40:21;1.57;;;1.40;;
53694;SDS011;39588;51.124;7.190;2022-07-09T04:42:46;0.93;;;0.93;;
53694;SDS011;39588;51.124;7.190;2022-07-09T04:45:12;1.47;;;1.40;;
53694;SDS011;39588;51.124;7.190;2022-07-09T04:47:38;1.00;;;1.00;;
53694;SDS011;39588;51.124;7.190;2022-07-09T04:50:04;1.93;;;1.10;;
53694;SDS011;39588;51.124;7.190;2022-07-09T04:52:29;2.43;;;1.20;;
53694;SDS011;39588;51.124;7.190;2022-07-09T04:54:55;0.80;;;0.80;;
53694;SDS011;39588;51.124;7.190;2022-07-09T04:57:21;1.27;;;1.27;;
53694;SDS011;39588;51.124;7.190;2022-07-09T04:59:47;0.80;;;0.80;;
53694;SDS011;39588;51.124;7.190;2022-07-09T05:02:12;0.70;;;0.70;;
53694;SDS011;39588;51.124;7.190;2022-07-09T05:04:39;1.50;;;1.00;;
53694;SDS011;39588;51.124;7.190;2022-07-09T05:07:04;1.33;;;1.13;;
53694;SDS011;39588;51.124;7.190;2022-07-09T05:09:30;1.17;;;1.10;;
53694;SDS011;39588;51.124;7.190;2022-07-09T05:11:56;1.17;;;1.13;;
53694;SDS011;39588;51.124;7.190;2022-07-09T05:14:22;1.40;;;1.37;;
53694;SDS011;39588;51.124;7.190;2022-07-09T05:16:47;1.40;;;1.40;;
53694;SDS011;39588;51.124;7.190;2022-07-09T05:19:13;0.80;;;0.80;;
53694;SDS011;39588;51.124;7.190;2022-07-09T05:21:39;0.90;;;0.90;;
53694;SDS011;39588;51.124;7.190;2022-07-09T05:24:05;3.03;;;1.50;;
53694;SDS011;39588;51.124;7.190;2022-07-09T05:26:32;1.10;;;1.10;;
53694;SDS011;39588;51.124;7.190;2022-07-09T05:28:58;0.83;;;0.83;;
53694;SDS011;39588;51.124;7.190;2022-07-09T05:31:24;2.43;;;1.13;;
53694;SDS011;39588;51.124;7.190;2022-07-09T05:33:50;0.80;;;0.80;;
53694;SDS011;39588;51.124;7.190;2022-07-09T05:36:17;1.13;;;1.10;;
53694;SDS011;39588;51.124;7.190;2022-07-09T05:38:43;1.03;;;0.97;;
53694;SDS011;39588;51.124;7.190;2022-07-09T05:41:08;1.80;;;1.40;;
53694;SDS011;39588;51.124;7.190;2022-07-09T05:43:35;1.13;;;1.13;;
53694;SDS011;39588;51.124;7.190;2022-07-09T05:46:01;1.27;;;1.20;;
53694;SDS011;39588;51.124;7.190;2022-07-09T05:48:27;1.83;;;1.73;;
53694;SDS011;39588;51.124;7.190;2022-07-09T05:50:52;2.97;;;2.00;;
53694;SDS011;39588;51.124;7.190;2022-07-09T05:53:19;2.83;;;1.47;;
53694;SDS011;39588;51.124;7.190;2022-07-09T05:55:45;1.10;;;1.10;;
53694;SDS011;39588;51.124;7.190;2022-07-09T05:58:11;1.10;;;1.10;;
53694;SDS011;39588;51.124;7.190;2022-07-09T06:00:37;0.83;;;0.83;;
53694;SDS011;39588;51.124;7.190;2022-07-09T06:03:03;3.60;;;2.10;;
53694;SDS011;39588;51.124;7.190;2022-07-09T06:05:28;2.00;;;1.90;;
53694;SDS011;39588;51.124;7.190;2022-07-09T06:07:55;1.37;;;1.27;;
53694;SDS011;39588;51.124;7.190;2022-07-09T06:10:21;1.43;;;1.33;;
53694;SDS011;39588;51.124;7.190;2022-07-09T06:12:46;1.00;;;1.00;;
53694;SDS011;39588;51.124;7.190;2022-07-09T06:15:12;1.17;;;1.17;;
53694;SDS011;39588;51.124;7.190;2022-07-09T06:17:38;1.97;;;1.63;;
53694;SDS011;39588;51.124;7.190;2022-07-09T06:20:04;2.70;;;2.50;;
53694;SDS011;39588;51.124;7.190;2022-07-09T06:22:31;2.17;;;2.07;;
53694;SDS011;39588;51.124;7.190;2022-07-09T06:24:57;1.50;;;1.50;;
53694;SDS011;39588;51.124;7.190;2022-07-09T06:27:22;1.90;;;1.80;;
53694;SDS011;39588;51.124;7.190;2022-07-09T06:29:49;2.07;;;1.87;;
53694;SDS011;39588;51.124;7.190;2022-07-09T06:32:14;2.47;;;2.20;;
53694;SDS011;39588;51.124;7.190;2022-07-09T06:34:40;2.40;;;2.20;;
53694;SDS011;39588;51.124;7.190;2022-07-09T06:37:06;1.93;;;1.83;;
53694;SDS011;39588;51.124;7.190;2022-07-09T06:39:31;1.73;;;1.63;;
53694;SDS011;39588;51.124;7.190;2022-07-09T06:42:10;1.33;;;1.30;;
53694;SDS011;39588;51.124;7.190;2022-07-09T06:44:36;1.67;;;1.57;;
53694;SDS011;39588;51.124;7.190;2022-07-09T06:47:03;1.77;;;1.20;;
53694;SDS011;39588;51.124;7.190;2022-07-09T06:49:29;1.77;;;1.53;;
53694;SDS011;39588;51.124;7.190;2022-07-09T06:51:55;2.00;;;1.90;;
53694;SDS011;39588;51.124;7.190;2022-07-09T06:54:20;1.80;;;1.70;;
53694;SDS011;39588;51.124;7.190;2022-07-09T06:56:46;2.13;;;2.03;;
53694;SDS011;39588;51.124;7.190;2022-07-09T06:59:12;1.67;;;1.57;;
53694;SDS011;39588;51.124;7.190;2022-07-09T07:01:38;1.30;;;1.30;;
53694;SDS011;39588;51.124;7.190;2022-07-09T07:04:04;3.70;;;2.23;;
53694;SDS011;39588;51.124;7.190;2022-07-09T07:06:30;1.70;;;1.70;;
53694;SDS011;39588;51.124;7.190;2022-07-09T07:08:55;1.90;;;1.80;;
53694;SDS011;39588;51.124;7.190;2022-07-09T07:11:21;2.93;;;1.57;;
53694;SDS011;39588;51.124;7.190;2022-07-09T07:13:47;1.40;;;1.30;;
53694;SDS011;39588;51.124;7.190;2022-07-09T07:16:12;2.13;;;1.40;;
53694;SDS011;39588;51.124;7.190;2022-07-09T07:18:39;1.00;;;1.00;;
53694;SDS011;39588;51.124;7.190;2022-07-09T07:21:04;1.90;;;1.40;;
53694;SDS011;39588;51.124;7.190;2022-07-09T07:23:30;0.60;;;0.60;;
53694;SDS011;39588;51.124;7.190;2022-07-09T07:25:59;1.07;;;1.00;;
53694;SDS011;39588;51.124;7.190;2022-07-09T07:30:55;0.57;;;0.57;;
53694;SDS011;39588;51.124;7.190;2022-07-09T07:33:21;0.70;;;0.70;;
53694;SDS011;39588;51.124;7.190;2022-07-09T07:35:47;1.87;;;1.60;;
53694;SDS011;39588;51.124;7.190;2022-07-09T07:38:12;1.13;;;1.07;;
53694;SDS011;39588;51.124;7.190;2022-07-09T07:40:38;0.70;;;0.70;;
53694;SDS011;39588;51.124;7.190;2022-07-09T07:43:04;0.97;;;0.97;;
53694;SDS011;39588;51.124;7.190;2022-07-09T07:45:29;1.33;;;1.27;;
53694;SDS011;39588;51.124;7.190;2022-07-09T07:47:56;1.07;;;1.07;;
53694;SDS011;39588;51.124;7.190;2022-07-09T07:50:22;1.13;;;1.13;;
53694;SDS011;39588;51.124;7.190;2022-07-09T07:52:48;1.00;;;1.00;;
53694;SDS011;39588;51.124;7.190;2022-07-09T07:55:14;2.63;;;1.20;;
53694;SDS011;39588;51.124;7.190;2022-07-09T07:57:40;0.50;;;0.50;;
53694;SDS011;39588;51.124;7.190;2022-07-09T08:00:06;0.70;;;0.70;;
53694;SDS011;39588;51.124;7.190;2022-07-09T08:02:32;1.20;;;1.10;;
53694;SDS011;39588;51.124;7.190;2022-07-09T08:04:59;0.70;;;0.70;;
53694;SDS011;39588;51.124;7.190;2022-07-09T08:07:25;0.77;;;0.77;;
53694;SDS011;39588;51.124;7.190;2022-07-09T08:09:51;1.47;;;1.37;;
53694;SDS011;39588;51.124;7.190;2022-07-09T08:12:16;2.30;;;1.40;;
53694;SDS011;39588;51.124;7.190;2022-07-09T08:14:42;1.37;;;1.30;;
53694;SDS011;39588;51.124;7.190;2022-07-09T08:17:08;0.77;;;0.77;;
53694;SDS011;39588;51.124;7.190;2022-07-09T08:19:33;1.37;;;0.80;;
53694;SDS011;39588;51.124;7.190;2022-07-09T08:21:59;1.10;;;1.10;;
53694;SDS011;39588;51.124;7.190;2022-07-09T08:24:25;0.80;;;0.80;;
53694;SDS011;39588;51.124;7.190;2022-07-09T08:26:51;0.67;;;0.67;;
53694;SDS011;39588;51.124;7.190;2022-07-09T08:29:17;0.83;;;0.83;;
53694;SDS011;39588;51.124;7.190;2022-07-09T08:31:43;0.90;;;0.90;;
53694;SDS011;39588;51.124;7.190;2022-07-09T08:34:09;0.97;;;0.97;;
53694;SDS011;39588;51.124;7.190;2022-07-09T08:36:36;0.67;;;0.67;;
53694;SDS011;39588;51.124;7.190;2022-07-09T08:39:02;0.90;;;0.90;;
53694;SDS011;39588;51.124;7.190;2022-07-09T08:41:28;0.93;;;0.93;;
53694;SDS011;39588;51.124;7.190;2022-07-09T08:43:53;1.00;;;1.00;;
53694;SDS011;39588;51.124;7.190;2022-07-09T08:46:19;1.47;;;1.07;;
53694;SDS011;39588;51.124;7.190;2022-07-09T08:48:45;1.23;;;0.93;;
53694;SDS011;39588;51.124;7.190;2022-07-09T08:51:12;0.87;;;0.87;;
53694;SDS011;39588;51.124;7.190;2022-07-09T08:53:41;1.20;;;1.00;;
53694;SDS011;39588;51.124;7.190;2022-07-09T08:56:08;0.63;;;0.63;;
53694;SDS011;39588;51.124;7.190;2022-07-09T08:58:34;0.40;;;0.40;;
53694;SDS011;39588;51.124;7.190;2022-07-09T09:01:00;0.70;;;0.70;;
53694;SDS011;39588;51.124;7.190;2022-07-09T09:03:26;0.50;;;0.50;;
53694;SDS011;39588;51.124;7.190;2022-07-09T09:08:32;0.50;;;0.50;;
53694;SDS011;39588;51.124;7.190;2022-07-09T09:11:06;0.70;;;0.70;;
53694;SDS011;39588;51.124;7.190;2022-07-09T09:13:42;0.23;;;0.23;;
53694;SDS011;39588;51.124;7.190;2022-07-09T09:16:09;0.53;;;0.53;;
53694;SDS011;39588;51.124;7.190;2022-07-09T09:18:45;1.07;;;0.80;;
53694;SDS011;39588;51.124;7.190;2022-07-09T09:21:12;0.40;;;0.40;;
53694;SDS011;39588;51.124;7.190;2022-07-09T09:23:42;0.97;;;0.67;;
53694;SDS011;39588;51.124;7.190;2022-07-09T09:26:16;0.30;;;0.30;;
53694;SDS011;39588;51.124;7.190;2022-07-09T09:28:56;0.43;;;0.43;;
53694;SDS011;39588;51.124;7.190;2022-07-09T09:31:27;0.27;;;0.27;;
53694;SDS011;39588;51.124;7.190;2022-07-09T09:33:55;0.50;;;0.50;;
53694;SDS011;39588;51.124;7.190;2022-07-09T09:36:41;0.20;;;0.20;;
53694;SDS011;39588;51.124;7.190;2022-07-09T09:41:51;0.27;;;0.27;;
53694;SDS011;39588;51.124;7.190;2022-07-09T09:44:24;0.47;;;0.37;;
53694;SDS011;39588;51.124;7.190;2022-07-09T09:46:56;0.20;;;0.20;;
53694;SDS011;39588;51.124;7.190;2022-07-09T09:49:23;0.30;;;0.30;;
53694;SDS011;39588;51.124;7.190;2022-07-09T09:54:27;0.50;;;0.50;;
53694;SDS011;39588;51.124;7.190;2022-07-09T09:56:53;0.50;;;0.50;;
53694;SDS011;39588;51.124;7.190;2022-07-09T09:59:19;0.30;;;0.30;;
53694;SDS011;39588;51.124;7.190;2022-07-09T10:01:45;0.63;;;0.63;;
53694;SDS011;39588;51.124;7.190;2022-07-09T10:04:12;0.40;;;0.40;;
53694;SDS011;39588;51.124;7.190;2022-07-09T10:06:40;0.37;;;0.37;;
53694;SDS011;39588;51.124;7.190;2022-07-09T10:09:06;0.83;;;0.70;;
53694;SDS011;39588;51.124;7.190;2022-07-09T10:14:08;0.80;;;0.80;;
53694;SDS011;39588;51.124;7.190;2022-07-09T10:16:54;1.00;;;0.63;;
53694;SDS011;39588;51.124;7.190;2022-07-09T10:19:27;0.40;;;0.40;;
53694;SDS011;39588;51.124;7.190;2022-07-09T10:21:58;0.67;;;0.67;;
53694;SDS011;39588;51.124;7.190;2022-07-09T10:26:51;0.23;;;0.23;;
53694;SDS011;39588;51.124;7.190;2022-07-09T10:29:26;0.40;;;0.40;;
53694;SDS011;39588;51.124;7.190;2022-07-09T10:31:54;0.40;;;0.40;;
53694;SDS011;39588;51.124;7.190;2022-07-09T10:37:07;0.30;;;0.30;;
53694;SDS011;39588;51.124;7.190;2022-07-09T10:39:33;0.40;;;0.40;;
53694;SDS011;39588;51.124;7.190;2022-07-09T10:44:36;0.27;;;0.27;;
53694;SDS011;39588;51.124;7.190;2022-07-09T10:47:06;0.37;;;0.37;;
53694;SDS011;39588;51.124;7.190;2022-07-09T10:49:35;0.40;;;0.40;;
53694;SDS011;39588;51.124;7.190;2022-07-09T10:52:02;0.50;;;0.50;;
53694;SDS011;39588;51.124;7.190;2022-07-09T10:54:30;0.30;;;0.30;;
53694;SDS011;39588;51.124;7.190;2022-07-09T10:56:57;0.33;;;0.33;;
53694;SDS011;39588;51.124;7.190;2022-07-09T10:59:23;0.30;;;0.20;;
53694;SDS011;39588;51.124;7.190;2022-07-09T11:01:49;0.40;;;0.40;;
53694;SDS011;39588;51.124;7.190;2022-07-09T11:04:26;0.33;;;0.33;;
53694;SDS011;39588;51.124;7.190;2022-07-09T11:06:53;0.30;;;0.30;;
53694;SDS011;39588;51.124;7.190;2022-07-09T11:09:19;0.30;;;0.30;;
53694;SDS011;39588;51.124;7.190;2022-07-09T11:11:45;0.40;;;0.40;;
53694;SDS011;39588;51.124;7.190;2022-07-09T11:14:14;0.30;;;0.30;;
53694;SDS011;39588;51.124;7.190;2022-07-09T11:16:39;0.53;;;0.53;;
53694;SDS011;39588;51.124;7.190;2022-07-09T11:19:38;0.30;;;0.30;;
53694;SDS011;39588;51.124;7.190;2022-07-09T11:22:00;0.20;;;0.20;;
53694;SDS011;39588;51.124;7.190;2022-07-09T11:24:27;0.13;;;0.13;;
53694;SDS011;39588;51.124;7.190;2022-07-09T11:26:54;0.30;;;0.30;;
53694;SDS011;39588;51.124;7.190;2022-07-09T11:29:20;0.23;;;0.23;;
53694;SDS011;39588;51.124;7.190;2022-07-09T11:31:46;0.20;;;0.20;;
53694;SDS011;39588;51.124;7.190;2022-07-09T11:34:14;0.20;;;0.20;;
53694;SDS011;39588;51.124;7.190;2022-07-09T11:36:42;0.30;;;0.30;;
53694;SDS011;39588;51.124;7.190;2022-07-09T11:39:15;0.30;;;0.30;;
53694;SDS011;39588;51.124;7.190;2022-07-09T11:41:50;0.30;;;0.30;;
53694;SDS011;39588;51.124;7.190;2022-07-09T11:44:34;0.30;;;0.30;;
53694;SDS011;39588;51.124;7.190;2022-07-09T11:49:32;0.30;;;0.30;;
53694;SDS011;39588;51.124;7.190;2022-07-09T11:52:01;0.20;;;0.20;;
53694;SDS011;39588;51.124;7.190;2022-07-09T11:54:30;0.50;;;0.50;;
53694;SDS011;39588;51.124;7.190;2022-07-09T11:56:56;0.33;;;0.20;;
53694;SDS011;39588;51.124;7.190;2022-07-09T11:59:28;0.83;;;0.33;;
53694;SDS011;39588;51.124;7.190;2022-07-09T12:01:59;0.27;;;0.27;;
53694;SDS011;39588;51.124;7.190;2022-07-09T12:04:27;0.17;;;0.17;;
53694;SDS011;39588;51.124;7.190;2022-07-09T12:06:55;0.40;;;0.40;;
53694;SDS011;39588;51.124;7.190;2022-07-09T12:09:30;0.33;;;0.33;;
53694;SDS011;39588;51.124;7.190;2022-07-09T12:11:57;0.23;;;0.23;;
53694;SDS011;39588;51.124;7.190;2022-07-09T12:14:24;0.70;;;0.63;;
53694;SDS011;39588;51.124;7.190;2022-07-09T12:16:49;0.33;;;0.33;;
53694;SDS011;39588;51.124;7.190;2022-07-09T12:19:15;0.70;;;0.70;;
53694;SDS011;39588;51.124;7.190;2022-07-09T12:21:41;0.83;;;0.63;;
53694;SDS011;39588;51.124;7.190;2022-07-09T12:24:06;0.57;;;0.57;;
53694;SDS011;39588;51.124;7.190;2022-07-09T12:26:32;0.50;;;0.50;;
53694;SDS011;39588;51.124;7.190;2022-07-09T12:28:58;0.37;;;0.37;;
53694;SDS011;39588;51.124;7.190;2022-07-09T12:31:23;0.20;;;0.20;;
53694;SDS011;39588;51.124;7.190;2022-07-09T12:33:49;0.30;;;0.30;;
53694;SDS011;39588;51.124;7.190;2022-07-09T12:36:15;0.57;;;0.57;;
53694;SDS011;39588;51.124;7.190;2022-07-09T12:38:44;0.30;;;0.30;;
53694;SDS011;39588;51.124;7.190;2022-07-09T12:41:09;0.57;;;0.40;;
53694;SDS011;39588;51.124;7.190;2022-07-09T12:43:35;0.47;;;0.47;;
53694;SDS011;39588;51.124;7.190;2022-07-09T12:46:00;0.30;;;0.30;;
53694;SDS011;39588;51.124;7.190;2022-07-09T12:48:26;0.50;;;0.50;;
53694;SDS011;39588;51.124;7.190;2022-07-09T12:50:52;0.57;;;0.57;;
53694;SDS011;39588;51.124;7.190;2022-07-09T12:53:19;0.30;;;0.30;;
53694;SDS011;39588;51.124;7.190;2022-07-09T12:55:44;0.30;;;0.30;;
53694;SDS011;39588;51.124;7.190;2022-07-09T12:58:11;0.47;;;0.47;;
53694;SDS011;39588;51.124;7.190;2022-07-09T13:00:37;0.43;;;0.43;;
53694;SDS011;39588;51.124;7.190;2022-07-09T13:03:02;3.17;;;0.57;;
53694;SDS011;39588;51.124;7.190;2022-07-09T13:05:28;0.40;;;0.40;;
53694;SDS011;39588;51.124;7.190;2022-07-09T13:07:54;1.17;;;0.77;;
53694;SDS011;39588;51.124;7.190;2022-07-09T13:10:19;0.43;;;0.43;;
53694;SDS011;39588;51.124;7.190;2022-07-09T13:12:45;0.80;;;0.80;;
53694;SDS011;39588;51.124;7.190;2022-07-09T13:15:12;0.70;;;0.70;;
53694;SDS011;39588;51.124;7.190;2022-07-09T13:17:38;0.50;;;0.50;;
53694;SDS011;39588;51.124;7.190;2022-07-09T13:20:04;1.27;;;0.67;;
53694;SDS011;39588;51.124;7.190;2022-07-09T13:22:31;0.60;;;0.60;;
53694;SDS011;39588;51.124;7.190;2022-07-09T13:24:56;0.43;;;0.43;;
53694;SDS011;39588;51.124;7.190;2022-07-09T13:27:22;0.80;;;0.80;;
53694;SDS011;39588;51.124;7.190;2022-07-09T13:29:47;1.43;;;1.30;;
53694;SDS011;39588;51.124;7.190;2022-07-09T13:32:13;0.80;;;0.80;;
53694;SDS011;39588;51.124;7.190;2022-07-09T13:34:39;1.03;;;1.03;;
53694;SDS011;39588;51.124;7.190;2022-07-09T13:37:04;0.83;;;0.83;;
53694;SDS011;39588;51.124;7.190;2022-07-09T13:39:30;0.70;;;0.70;;
53694;SDS011;39588;51.124;7.190;2022-07-09T13:41:56;0.80;;;0.80;;
53694;SDS011;39588;51.124;7.190;2022-07-09T13:44:21;0.80;;;0.80;;
53694;SDS011;39588;51.124;7.190;2022-07-09T13:46:47;1.20;;;1.10;;
53694;SDS011;39588;51.124;7.190;2022-07-09T13:49:19;0.67;;;0.67;;
53694;SDS011;39588;51.124;7.190;2022-07-09T13:51:44;1.00;;;1.00;;
53694;SDS011;39588;51.124;7.190;2022-07-09T13:54:10;0.83;;;0.83;;
53694;SDS011;39588;51.124;7.190;2022-07-09T13:56:36;17.37;;;1.23;;
53694;SDS011;39588;51.124;7.190;2022-07-09T13:59:01;1.57;;;1.23;;
53694;SDS011;39588;51.124;7.190;2022-07-09T14:01:27;3.57;;;1.73;;
53694;SDS011;39588;51.124;7.190;2022-07-09T14:03:52;0.53;;;0.53;;
53694;SDS011;39588;51.124;7.190;2022-07-09T14:06:19;1.20;;;1.20;;
53694;SDS011;39588;51.124;7.190;2022-07-09T14:08:45;0.87;;;0.87;;
53694;SDS011;39588;51.124;7.190;2022-07-09T14:11:11;0.97;;;0.97;;
53694;SDS011;39588;51.124;7.190;2022-07-09T14:13:37;1.73;;;1.63;;
53694;SDS011;39588;51.124;7.190;2022-07-09T14:16:03;0.87;;;0.87;;
53694;SDS011;39588;51.124;7.190;2022-07-09T14:18:29;1.37;;;1.37;;
53694;SDS011;39588;51.124;7.190;2022-07-09T14:20:54;1.67;;;1.47;;
53694;SDS011;39588;51.124;7.190;2022-07-09T14:23:20;0.83;;;0.83;;
53694;SDS011;39588;51.124;7.190;2022-07-09T14:25:46;2.53;;;1.60;;
53694;SDS011;39588;51.124;7.190;2022-07-09T14:28:12;1.30;;;1.20;;
53694;SDS011;39588;51.124;7.190;2022-07-09T14:30:39;0.90;;;0.90;;
53694;SDS011;39588;51.124;7.190;2022-07-09T14:33:05;1.23;;;1.13;;
53694;SDS011;39588;51.124;7.190;2022-07-09T14:35:31;2.07;;;1.80;;
53694;SDS011;39588;51.124;7.190;2022-07-09T14:37:58;0.80;;;0.80;;
53694;SDS011;39588;51.124;7.190;2022-07-09T14:40:24;0.60;;;0.60;;
53694;SDS011;39588;51.124;7.190;2022-07-09T14:42:49;2.00;;;1.53;;
53694;SDS011;39588;51.124;7.190;2022-07-09T14:45:15;0.60;;;0.60;;
53694;SDS011;39588;51.124;7.190;2022-07-09T14:47:47;4.10;;;1.10;;
53694;SDS011;39588;51.124;7.190;2022-07-09T14:50:13;1.07;;;0.90;;
53694;SDS011;39588;51.124;7.190;2022-07-09T14:52:38;0.50;;;0.50;;
53694;SDS011;39588;51.124;7.190;2022-07-09T14:55:04;0.60;;;0.60;;
53694;SDS011;39588;51.124;7.190;2022-07-09T14:57:30;0.60;;;0.60;;
53694;SDS011;39588;51.124;7.190;2022-07-09T14:59:55;0.77;;;0.77;;
53694;SDS011;39588;51.124;7.190;2022-07-09T15:02:21;0.60;;;0.60;;
53694;SDS011;39588;51.124;7.190;2022-07-09T15:04:48;0.27;;;0.27;;
53694;SDS011;39588;51.124;7.190;2022-07-09T15:07:13;0.87;;;0.87;;
53694;SDS011;39588;51.124;7.190;2022-07-09T15:09:40;1.27;;;1.27;;